Time,TemperatureF,DewpointF,PressureIn,WindDirection,WindDirectionDegrees,WindSpeedMPH,WindSpeedGustMPH,Humidity,HourlyPrecipIn,Conditions,Clouds,dailyrainin,SolarRadiationWatts/m^2,SoftwareType,DateUTC
2013-07-21 00:02:00,76.1,35.0,30.02,South,188,0.0,13.0,22,0.00,,,0.00,0,weatherlink.com 1.10,2013-07-21 06:02:00,
2013-07-21 00:17:00,74.4,35.0,30.02,South,185,2.0,6.0,24,0.00,,,0.00,0,weatherlink.com 1.10,2013-07-21 06:17:00,
2013-07-21 00:32:00,74.3,34.0,30.03,NE,49,3.0,8.0,23,0.00,,,0.00,0,weatherlink.com 1.10,2013-07-21 06:32:00,
2013-07-21 00:47:00,74.6,34.0,30.03,NE,48,4.0,11.0,23,0.00,,,0.00,0,weatherlink.com 1.10,2013-07-21 06:47:00,
2013-07-21 01:02:00,73.1,35.0,30.03,NE,39,3.0,8.0,25,0.00,,,0.00,0,weatherlink.com 1.10,2013-07-21 07:02:00,
2013-07-21 01:17:00,71.5,35.0,30.04,NW,318,3.0,4.0,26,0.00,,,0.00,0,weatherlink.com 1.10,2013-07-21 07:17:00,
2013-07-21 01:32:00,70.8,35.0,30.04,NNE,24,4.0,9.0,27,0.00,,,0.00,0,weatherlink.com 1.10,2013-07-21 07:32:00,
2013-07-21 01:47:00,69.4,35.0,30.04,NNW,329,2.0,4.0,28,0.00,,,0.00,0,weatherlink.com 1.10,2013-07-21 07:47:00,
2013-07-21 02:02:00,67.7,34.0,30.04,NW,315,2.0,3.0,29,0.00,,,0.00,0,weatherlink.com 1.10,2013-07-21 08:02:00,
2013-07-21 02:18:00,67.5,35.0,30.04,West,259,2.0,4.0,30,0.00,,,0.00,0,weatherlink.com 1.10,2013-07-21 08:18:00,
2013-07-21 02:33:00,66.9,35.0,30.05,SW,224,0.0,4.0,31,0.00,,,0.00,0,weatherlink.com 1.10,2013-07-21 08:33:00,
2013-07-21 02:48:00,65.9,35.0,30.05,SW,224,3.0,3.0,32,0.00,,,0.00,0,weatherlink.com 1.10,2013-07-21 08:48:00,
2013-07-21 03:03:00,65.8,35.0,30.04,SSE,155,0.0,5.0,32,0.00,,,0.00,0,weatherlink.com 1.10,2013-07-21 09:03:00,
2013-07-21 03:18:00,65.7,35.0,30.05,SSE,152,0.0,1.0,32,0.00,,,0.00,0,weatherlink.com 1.10,2013-07-21 09:18:00,
2013-07-21 03:33:00,65.0,34.0,30.05,SSE,153,5.0,9.0,32,0.00,,,0.00,0,weatherlink.com 1.10,2013-07-21 09:33:00,
2013-07-21 03:48:00,67.2,35.0,30.05,South,174,1.0,10.0,30,0.00,,,0.00,0,weatherlink.com 1.10,2013-07-21 09:48:00,
2013-07-21 04:03:00,65.4,35.0,30.05,SSE,165,3.0,9.0,33,0.00,,,0.00,0,weatherlink.com 1.10,2013-07-21 10:03:00,
2013-07-21 04:19:00,64.1,36.0,30.05,SSE,161,0.0,7.0,35,0.00,,,0.00,0,weatherlink.com 1.10,2013-07-21 10:19:00,
2013-07-21 04:33:00,64.1,36.0,30.05,SSW,213,4.0,6.0,36,0.00,,,0.00,0,weatherlink.com 1.10,2013-07-21 10:33:00,
2013-07-21 04:48:00,62.4,36.0,30.06,South,177,2.0,6.0,38,0.00,,,0.00,0,weatherlink.com 1.10,2013-07-21 10:48:00,
2013-07-21 05:03:00,59.6,36.0,30.06,SSE,167,3.0,9.0,41,0.00,,,0.00,0,weatherlink.com 1.10,2013-07-21 11:03:00,
2013-07-21 05:18:00,60.7,37.0,30.06,SSE,158,3.0,5.0,42,0.00,,,0.00,0,weatherlink.com 1.10,2013-07-21 11:18:00,
2013-07-21 05:33:00,61.3,37.0,30.06,SSE,163,4.0,6.0,40,0.00,,,0.00,0,weatherlink.com 1.10,2013-07-21 11:33:00,
2013-07-21 05:48:00,61.2,37.0,30.07,SSE,164,1.0,3.0,40,0.00,,,0.00,0,weatherlink.com 1.10,2013-07-21 11:48:00,
2013-07-21 06:03:00,60.7,36.0,30.07,South,174,0.0,3.0,40,0.00,,,0.00,0,weatherlink.com 1.10,2013-07-21 12:03:00,
2013-07-21 06:18:00,58.7,35.0,30.08,WSW,247,1.0,3.0,42,0.00,,,0.00,9,weatherlink.com 1.10,2013-07-21 12:18:00,
2013-07-21 06:33:00,57.9,35.0,30.07,WSW,247,2.0,3.0,43,0.00,,,0.00,12,weatherlink.com 1.10,2013-07-21 12:33:00,
2013-07-21 06:48:00,59.7,36.0,30.08,SSE,150,2.0,3.0,42,0.00,,,0.00,16,weatherlink.com 1.10,2013-07-21 12:48:00,
2013-07-21 07:03:00,61.2,36.0,30.08,SSE,150,1.0,2.0,39,0.00,,,0.00,19,weatherlink.com 1.10,2013-07-21 13:03:00,
2013-07-21 07:18:00,60.1,37.0,30.08,SSW,209,3.0,6.0,42,0.00,,,0.00,132,weatherlink.com 1.10,2013-07-21 13:18:00,
2013-07-21 07:33:00,57.1,38.0,30.09,SSW,202,4.0,6.0,49,0.00,,,0.00,178,weatherlink.com 1.10,2013-07-21 13:33:00,
2013-07-21 07:49:00,54.9,37.0,30.10,SSW,200,0.0,5.0,52,0.00,,,0.00,214,weatherlink.com 1.10,2013-07-21 13:49:00,
2013-07-21 08:04:00,58.0,39.0,30.10,SSW,196,1.0,3.0,49,0.00,,,0.00,250,weatherlink.com 1.10,2013-07-21 14:04:00,
2013-07-21 08:19:00,58.7,37.0,30.10,South,186,0.0,7.0,45,0.00,,,0.00,287,weatherlink.com 1.10,2013-07-21 14:19:00,
2013-07-21 08:34:00,60.7,37.0,30.10,SSE,162,6.0,8.0,41,0.00,,,0.00,323,weatherlink.com 1.10,2013-07-21 14:34:00,
2013-07-21 08:49:00,62.9,37.0,30.09,South,171,4.0,10.0,38,0.00,,,0.00,359,weatherlink.com 1.10,2013-07-21 14:49:00,
2013-07-21 09:04:00,63.2,35.0,30.09,SSW,205,10.0,14.0,35,0.00,,,0.00,396,weatherlink.com 1.10,2013-07-21 15:04:00,
2013-07-21 09:19:00,63.5,37.0,30.09,SSW,199,8.0,12.0,37,0.00,,,0.00,431,weatherlink.com 1.10,2013-07-21 15:19:00,
2013-07-21 09:34:00,64.4,36.0,30.09,South,186,5.0,11.0,35,0.00,,,0.00,462,weatherlink.com 1.10,2013-07-21 15:34:00,
2013-07-21 09:49:00,65.9,37.0,30.09,SSW,201,9.0,13.0,34,0.00,,,0.00,497,weatherlink.com 1.10,2013-07-21 15:49:00,
2013-07-21 10:04:00,67.1,37.0,30.09,South,179,3.0,14.0,33,0.00,,,0.00,538,weatherlink.com 1.10,2013-07-21 16:04:00,
2013-07-21 10:19:00,68.3,36.0,30.08,SSW,213,12.0,14.0,30,0.00,,,0.00,582,weatherlink.com 1.10,2013-07-21 16:19:00,
2013-07-21 10:34:00,69.5,36.0,30.08,SSW,202,10.0,13.0,29,0.00,,,0.00,612,weatherlink.com 1.10,2013-07-21 16:34:00,
2013-07-21 10:49:00,71.0,36.0,30.07,SSW,202,7.0,11.0,28,0.00,,,0.00,642,weatherlink.com 1.10,2013-07-21 16:49:00,
2013-07-21 11:04:00,72.5,39.0,30.07,SW,225,6.0,11.0,30,0.00,,,0.00,666,weatherlink.com 1.10,2013-07-21 17:04:00,
2013-07-21 11:20:00,74.0,37.0,30.06,SSW,213,10.0,10.0,26,0.00,,,0.00,686,weatherlink.com 1.10,2013-07-21 17:20:00,
2013-07-21 11:35:00,75.2,34.0,30.06,SW,219,8.0,13.0,22,0.00,,,0.00,703,weatherlink.com 1.10,2013-07-21 17:35:00,
2013-07-21 11:50:00,76.5,35.0,30.05,SW,216,12.0,13.0,22,0.00,,,0.00,722,weatherlink.com 1.10,2013-07-21 17:50:00,
2013-07-21 12:05:00,76.6,35.0,30.05,SW,224,9.0,13.0,22,0.00,,,0.00,737,weatherlink.com 1.10,2013-07-21 18:05:00,
2013-07-21 12:20:00,77.8,36.0,30.04,SW,236,6.0,11.0,22,0.00,,,0.00,754,weatherlink.com 1.10,2013-07-21 18:20:00,
2013-07-21 12:35:00,79.6,35.0,30.03,SW,223,11.0,14.0,20,0.00,,,0.00,768,weatherlink.com 1.10,2013-07-21 18:35:00,
2013-07-21 12:50:00,81.2,31.0,30.02,SW,221,11.0,11.0,16,0.00,,,0.00,777,weatherlink.com 1.10,2013-07-21 18:50:00,
2013-07-21 13:20:00,82.6,29.0,30.01,South,171,6.0,12.0,14,0.00,,,0.00,789,weatherlink.com 1.10,2013-07-21 19:20:00,
2013-07-21 13:35:00,83.3,29.0,30.01,SW,228,11.0,16.0,14,0.00,,,0.00,793,weatherlink.com 1.10,2013-07-21 19:35:00,
2013-07-21 13:50:00,83.7,28.0,30.00,SSW,200,7.0,14.0,13,0.00,,,0.00,793,weatherlink.com 1.10,2013-07-21 19:50:00,
2013-07-21 14:05:00,84.8,29.0,29.99,South,184,9.0,16.0,13,0.00,,,0.00,788,weatherlink.com 1.10,2013-07-21 20:05:00,
2013-07-21 14:20:00,85.4,29.0,29.99,SW,232,2.0,12.0,13,0.00,,,0.00,782,weatherlink.com 1.10,2013-07-21 20:20:00,
2013-07-21 14:35:00,85.7,27.0,29.98,WNW,297,1.0,12.0,12,0.00,,,0.00,773,weatherlink.com 1.10,2013-07-21 20:35:00,
2013-07-21 14:51:00,86.6,30.0,29.98,SSW,207,12.0,14.0,13,0.00,,,0.00,765,weatherlink.com 1.10,2013-07-21 20:51:00,
2013-07-21 15:06:00,87.2,27.0,29.97,ESE,117,2.0,13.0,11,0.00,,,0.00,754,weatherlink.com 1.10,2013-07-21 21:06:00,
2013-07-21 15:21:00,87.7,27.0,29.96,WSW,249,0.0,12.0,11,0.00,,,0.00,737,weatherlink.com 1.10,2013-07-21 21:21:00,
2013-07-21 15:36:00,88.0,25.0,29.96,WSW,238,8.0,14.0,10,0.00,,,0.00,715,weatherlink.com 1.10,2013-07-21 21:36:00,
2013-07-21 15:51:00,88.2,25.0,29.95,NE,51,0.0,9.0,10,0.00,,,0.00,701,weatherlink.com 1.10,2013-07-21 21:51:00,
2013-07-21 16:06:00,89.2,26.0,29.95,SSW,209,12.0,14.0,10,0.00,,,0.00,684,weatherlink.com 1.10,2013-07-21 22:06:00,
2013-07-21 16:21:00,88.8,26.0,29.94,SW,214,3.0,11.0,10,0.00,,,0.00,661,weatherlink.com 1.10,2013-07-21 22:21:00,
2013-07-21 16:36:00,89.2,23.0,29.94,East,86,0.0,8.0,9,0.00,,,0.00,638,weatherlink.com 1.10,2013-07-21 22:36:00,
2013-07-21 16:51:00,-999.0,-99.9,29.93,North,-999,-999.0,-999.0,-999,0.00,,,0.00,,weatherlink.com 1.10,2013-07-21 22:51:00,
2013-07-21 17:06:00,-999.0,-99.9,29.92,North,-999,-999.0,-999.0,-999,0.00,,,0.00,,weatherlink.com 1.10,2013-07-21 23:06:00,
2013-07-21 17:21:00,-999.0,-99.9,29.92,North,-999,-999.0,-999.0,-999,0.00,,,0.00,,weatherlink.com 1.10,2013-07-21 23:21:00,
2013-07-21 17:36:00,-999.0,-99.9,29.92,North,-999,-999.0,-999.0,-999,0.00,,,0.00,,weatherlink.com 1.10,2013-07-21 23:36:00,
2013-07-21 17:51:00,-999.0,-99.9,29.91,North,-999,-999.0,-999.0,-999,0.00,,,0.00,,weatherlink.com 1.10,2013-07-21 23:51:00,
2013-07-21 18:06:00,-999.0,-99.9,29.91,North,-999,-999.0,-999.0,-999,0.00,,,0.00,,weatherlink.com 1.10,2013-07-22 00:06:00,
2013-07-21 18:21:00,-999.0,-99.9,29.90,North,-999,-999.0,-999.0,-999,0.00,,,0.00,,weatherlink.com 1.10,2013-07-22 00:21:00,
2013-07-21 18:36:00,-999.0,-99.9,29.90,North,-999,-999.0,-999.0,-999,0.00,,,0.00,,weatherlink.com 1.10,2013-07-22 00:36:00,
2013-07-21 18:52:00,-999.0,-99.9,29.90,North,-999,-999.0,-999.0,-999,0.00,,,0.00,,weatherlink.com 1.10,2013-07-22 00:52:00,
2013-07-21 19:07:00,-999.0,-99.9,29.90,North,-999,-999.0,-999.0,-999,0.00,,,0.00,,weatherlink.com 1.10,2013-07-22 01:07:00,
2013-07-21 19:22:00,-999.0,-99.9,29.90,North,-999,-999.0,-999.0,-999,0.00,,,0.00,,weatherlink.com 1.10,2013-07-22 01:22:00,
2013-07-21 19:37:00,-999.0,-99.9,29.90,North,-999,-999.0,-999.0,-999,0.00,,,0.00,,weatherlink.com 1.10,2013-07-22 01:37:00,
2013-07-21 19:52:00,-999.0,-99.9,29.91,North,-999,-999.0,-999.0,-999,0.00,,,0.00,,weatherlink.com 1.10,2013-07-22 01:52:00,
2013-07-21 20:07:00,-999.0,-99.9,29.91,North,-999,-999.0,-999.0,-999,0.00,,,0.00,,weatherlink.com 1.10,2013-07-22 02:07:00,
2013-07-21 20:22:00,-999.0,-99.9,29.92,North,-999,-999.0,-999.0,-999,0.00,,,0.00,,weatherlink.com 1.10,2013-07-22 02:22:00,
2013-07-21 20:36:00,-999.0,-99.9,29.92,North,-999,-999.0,-999.0,-999,0.00,,,0.00,,weatherlink.com 1.10,2013-07-22 02:36:00,
2013-07-21 20:52:00,-999.0,-99.9,29.92,North,-999,-999.0,-999.0,-999,0.00,,,0.00,,weatherlink.com 1.10,2013-07-22 02:52:00,
2013-07-21 21:07:00,-999.0,-99.9,29.93,North,-999,-999.0,-999.0,-999,0.00,,,0.00,,weatherlink.com 1.10,2013-07-22 03:07:00,
2013-07-21 21:22:00,-999.0,-99.9,29.94,North,-999,-999.0,-999.0,-999,0.00,,,0.00,,weatherlink.com 1.10,2013-07-22 03:22:00,
2013-07-21 21:36:00,-999.0,-99.9,29.94,North,-999,-999.0,-999.0,-999,0.00,,,0.00,,weatherlink.com 1.10,2013-07-22 03:36:00,
2013-07-21 21:52:00,-999.0,-99.9,29.95,North,-999,-999.0,-999.0,-999,0.00,,,0.00,,weatherlink.com 1.10,2013-07-22 03:52:00,
2013-07-21 22:07:00,-999.0,-99.9,29.96,North,-999,-999.0,-999.0,-999,0.00,,,0.00,,weatherlink.com 1.10,2013-07-22 04:07:00,
2013-07-21 22:23:00,-999.0,-99.9,29.97,North,-999,-999.0,-999.0,-999,0.00,,,0.00,,weatherlink.com 1.10,2013-07-22 04:23:00,
2013-07-21 22:38:00,-999.0,-99.9,29.96,North,-999,-999.0,-999.0,-999,0.00,,,0.00,,weatherlink.com 1.10,2013-07-22 04:38:00,
2013-07-21 22:53:00,-999.0,-99.9,29.96,North,-999,-999.0,-999.0,-999,0.00,,,0.00,,weatherlink.com 1.10,2013-07-22 04:53:00,
2013-07-21 23:08:00,-999.0,-99.9,29.96,North,-999,-999.0,-999.0,-999,0.00,,,0.00,,weatherlink.com 1.10,2013-07-22 05:08:00,
2013-07-21 23:23:00,-999.0,-99.9,29.96,North,-999,-999.0,-999.0,-999,0.00,,,0.00,,weatherlink.com 1.10,2013-07-22 05:23:00,
2013-07-21 23:38:00,-999.0,-99.9,29.97,North,-999,-999.0,-999.0,-999,0.00,,,0.00,,weatherlink.com 1.10,2013-07-22 05:38:00,
2013-07-21 23:53:00,-999.0,-99.9,29.98,North,-999,-999.0,-999.0,-999,0.00,,,0.00,,weatherlink.com 1.10,2013-07-22 05:53:00,